Hardin, Missouri
Current Conditions -  °F | °C
As of 7:35 PM on Monday 20 Oct 2014 (Local Time) from KGPH Reporting Station
Clear Clear  
Wind Chill: 55°   Ceiling: Unl
Heat Index: 55°   Visibility: 10mi
Dew Point: 46°   Wind: 0mph
Humidity: 72%   Direction: NA
Pressure: 30.04"   Gusts: NA
Location:  39.27°N, 93.83°W
Report Text: KGPH 210035Z AUTO 00000KT 10SM CLR 13/08 A3004 RMK AO2
Loading
Personal Weather Stations






























Interactive Weather Map
Tropical Storm Tracking
New forecast layout! Learn more

10-Day Weather Forecast

Advertisements
Track Severe Weather on mobile